Time;durP1;ratioP1;P1;durP2;ratioP2;P2;SDS_P1;SDS_P2;PMS_P1;PMS_P2;Temp;Humidity;BMP_temperature;BMP_pressure;BME280_temperature;BME280_humidity;BME280_pressure;Samples;Min_cycle;Max_cycle;Signal;HPM_P1;HPM_P2
2021/04/21 00:01:46;;;;;;;47.37;39.20;;;7.60;99.90;;;;;;4914126;29;20494;-81
2021/04/21 00:04:15;;;;;;;40.67;36.53;;;7.60;99.90;;;;;;4916825;29;20594;-81
2021/04/21 00:06:43;;;;;;;38.03;34.13;;;7.60;99.90;;;;;;4917047;29;20512;-81
2021/04/21 00:09:13;;;;;;;42.50;32.30;;;7.70;99.90;;;;;;4915437;29;20459;-81
2021/04/21 00:11:41;;;;;;;41.50;31.40;;;7.70;99.90;;;;;;4916789;29;20562;-82
2021/04/21 00:14:08;;;;;;;39.23;25.30;;;7.60;99.90;;;;;;4916130;29;20494;-82
2021/04/21 00:16:36;;;;;;;35.33;25.33;;;7.50;99.90;;;;;;4916200;29;20794;-82
2021/04/21 00:19:05;;;;;;;34.87;24.03;;;7.40;99.90;;;;;;4916626;29;20963;-81
2021/04/21 00:21:34;;;;;;;32.73;29.27;;;7.30;99.90;;;;;;4897789;29;20482;-81
2021/04/21 00:24:03;;;;;;;40.70;31.70;;;7.20;99.90;;;;;;4896891;29;20551;-81
2021/04/21 00:26:31;;;;;;;41.73;36.97;;;7.10;99.90;;;;;;4916200;29;20878;-81
2021/04/21 00:29:00;;;;;;;53.97;40.20;;;7.20;99.90;;;;;;4916428;29;20475;-81
2021/04/21 00:31:27;;;;;;;40.70;34.70;;;7.30;99.90;;;;;;4916216;29;20529;-81
2021/04/21 00:33:56;;;;;;;43.40;36.10;;;7.20;99.90;;;;;;4916140;29;20552;-82
2021/04/21 00:36:26;;;;;;;49.50;41.93;;;7.10;99.90;;;;;;4915982;28;20456;-82
2021/04/21 00:38:54;;;;;;;49.37;44.00;;;7.00;99.90;;;;;;4915531;29;20543;-81
2021/04/21 00:41:33;;;;;;;55.13;42.93;;;7.00;99.90;;;;;;4916135;29;20459;-81
2021/04/21 00:44:06;;;;;;;67.63;44.73;;;7.10;99.90;;;;;;4916368;29;20466;-81
2021/04/21 00:46:37;;;;;;;44.20;39.63;;;7.10;99.90;;;;;;4916156;29;20553;-81
2021/04/21 00:49:10;;;;;;;50.83;38.30;;;7.20;99.90;;;;;;4915724;29;20482;-81
2021/04/21 00:51:43;;;;;;;48.60;33.77;;;7.20;99.90;;;;;;4916015;29;20496;-81
2021/04/21 00:54:19;;;;;;;29.00;20.80;;;7.30;99.90;;;;;;4915122;29;20462;-81
2021/04/21 00:56:55;;;;;;;36.70;23.57;;;7.30;99.90;;;;;;4916179;29;20453;-81
2021/04/21 00:59:32;;;;;;;34.07;22.10;;;7.10;99.90;;;;;;4915689;29;20538;-81
2021/04/21 01:02:01;;;;;;;38.80;26.50;;;7.00;99.90;;;;;;4915909;29;20568;-81
2021/04/21 01:04:27;;;;;;;44.17;32.40;;;7.00;99.90;;;;;;4915331;29;20470;-82
2021/04/21 01:06:55;;;;;;;27.60;24.70;;;7.00;99.90;;;;;;4916031;29;20867;-81
2021/04/21 01:09:25;;;;;;;30.10;26.47;;;7.00;99.90;;;;;;4914456;29;20457;-81
2021/04/21 01:11:58;;;;;;;33.57;26.53;;;6.90;99.90;;;;;;4915913;29;20455;-81
2021/04/21 01:14:27;;;;;;;54.03;35.20;;;6.90;99.90;;;;;;4915233;29;20558;-82
2021/04/21 01:16:58;;;;;;;44.83;39.07;;;6.90;99.90;;;;;;4915519;29;20459;-81
2021/04/21 01:19:36;;;;;;;44.00;39.60;;;6.90;99.90;;;;;;4915501;29;20561;-81
2021/04/21 01:22:13;;;;;;;51.17;46.10;;;7.00;99.90;;;;;;4915820;29;20510;-81
2021/04/21 01:24:48;;;;;;;47.13;42.30;;;7.00;99.90;;;;;;4914683;29;20469;-82
2021/04/21 01:27:18;;;;;;;50.40;44.30;;;7.10;99.90;;;;;;4915020;29;20466;-82
2021/04/21 01:29:49;;;;;;;48.63;43.77;;;7.10;99.90;;;;;;4915425;29;20485;-82
2021/04/21 01:32:18;;;;;;;58.77;47.87;;;7.10;99.90;;;;;;4915744;29;20546;-82
2021/04/21 01:34:47;;;;;;;51.43;46.67;;;7.00;99.90;;;;;;4915652;29;20466;-82
2021/04/21 01:37:17;;;;;;;50.80;46.07;;;7.10;99.90;;;;;;4915397;29;20963;-81
2021/04/21 01:39:54;;;;;;;49.53;44.70;;;7.00;99.90;;;;;;4913853;29;20545;-82
2021/04/21 01:42:23;;;;;;;51.87;47.17;;;7.00;99.90;;;;;;4915541;29;20462;-82
2021/04/21 01:44:53;;;;;;;59.80;48.70;;;7.00;99.90;;;;;;4915133;29;20540;-82
2021/04/21 01:47:22;;;;;;;53.83;48.60;;;6.90;99.90;;;;;;4915369;29;20469;-82
2021/04/21 01:50:00;;;;;;;48.07;43.37;;;6.90;99.90;;;;;;4915264;29;20467;-81
2021/04/21 01:52:41;;;;;;;58.40;52.17;;;7.00;99.90;;;;;;4914922;29;20459;-81
2021/04/21 01:55:21;;;;;;;53.27;48.67;;;7.00;99.90;;;;;;4914007;29;20473;-82
2021/04/21 01:57:52;;;;;;;61.03;55.33;;;7.00;99.90;;;;;;4915479;29;20459;-82
2021/04/21 02:00:31;;;;;;;62.87;56.93;;;7.10;99.90;;;;;;4914882;29;20893;-82
2021/04/21 02:03:10;;;;;;;69.23;59.57;;;7.10;99.90;;;;;;4915343;29;20456;-82
2021/04/21 02:05:49;;;;;;;56.17;51.37;;;7.30;99.90;;;;;;4915006;29;20488;-82
2021/04/21 02:08:24;;;;;;;71.03;62.27;;;7.30;99.90;;;;;;4915005;29;20907;-81
2021/04/21 02:11:03;;;;;;;69.80;63.10;;;7.30;99.90;;;;;;4913676;29;20725;-81
2021/04/21 02:13:39;;;;;;;60.00;53.70;;;7.40;99.90;;;;;;4915114;29;20972;-81
2021/04/21 02:16:19;;;;;;;65.90;60.47;;;7.30;99.90;;;;;;4915082;29;20465;-82
2021/04/21 02:18:57;;;;;;;57.70;52.40;;;7.20;99.90;;;;;;4914737;29;20457;-80
2021/04/21 02:21:27;;;;;;;56.30;51.90;;;7.10;99.90;;;;;;4895987;29;20482;-82
2021/04/21 02:23:58;;;;;;;65.73;59.27;;;7.00;99.90;;;;;;4899425;28;21225;-81
2021/04/21 02:26:39;;;;;;;66.30;60.40;;;6.90;99.90;;;;;;4914572;29;20952;-82
2021/04/21 02:29:15;;;;;;;65.43;59.43;;;7.00;99.90;;;;;;4914014;29;20871;-82
2021/04/21 02:31:55;;;;;;;76.43;63.43;;;6.90;99.90;;;;;;4914713;29;20493;-81
2021/04/21 02:34:30;;;;;;;67.77;61.50;;;6.80;99.90;;;;;;4914951;29;20453;-82
2021/04/21 02:37:05;;;;;;;69.20;63.00;;;6.80;99.90;;;;;;4914638;29;20973;-82
2021/04/21 02:39:40;;;;;;;72.07;66.03;;;6.70;99.90;;;;;;4913178;29;20458;-81
2021/04/21 02:42:15;;;;;;;77.63;70.80;;;6.70;99.90;;;;;;4914076;29;20550;-81
2021/04/21 02:44:52;;;;;;;78.37;70.73;;;6.60;99.90;;;;;;4914472;29;20835;-82
2021/04/21 02:47:26;;;;;;;78.50;71.80;;;6.60;99.90;;;;;;4914461;29;20487;-81
2021/04/21 02:50:04;;;;;;;81.63;74.63;;;6.50;99.90;;;;;;4914138;29;20519;-82
2021/04/21 02:52:42;;;;;;;81.37;74.03;;;6.40;99.90;;;;;;4914627;29;20882;-81
2021/04/21 02:55:25;;;;;;;81.97;74.60;;;6.40;99.90;;;;;;4912426;29;20909;-82
2021/04/21 02:58:00;;;;;;;81.27;75.00;;;6.50;99.90;;;;;;4914233;29;20464;-81
2021/04/21 03:00:30;;;;;;;81.93;74.73;;;6.50;99.90;;;;;;4913911;29;20494;-81
2021/04/21 03:03:10;;;;;;;81.70;75.37;;;6.50;99.90;;;;;;4914408;29;20544;-81
2021/04/21 03:05:38;;;;;;;87.33;79.97;;;6.60;99.90;;;;;;4914085;29;20454;-81
2021/04/21 03:08:11;;;;;;;85.63;79.53;;;6.60;99.90;;;;;;4914319;29;20471;-81
2021/04/21 03:10:43;;;;;;;91.73;83.87;;;6.60;99.90;;;;;;4913066;29;20829;-81
2021/04/21 03:13:14;;;;;;;99.57;90.20;;;6.70;99.90;;;;;;4914620;29;20988;-82
2021/04/21 03:15:46;;;;;;;103.40;90.90;;;6.80;99.90;;;;;;4914180;29;20459;-82
2021/04/21 03:18:18;;;;;;;95.43;87.10;;;6.90;99.90;;;;;;4913893;29;20446;-82
2021/04/21 03:20:48;;;;;;;94.60;86.87;;;7.00;99.90;;;;;;4913778;29;20489;-81
2021/04/21 03:23:21;;;;;;;89.37;82.27;;;7.00;99.90;;;;;;4915336;29;20490;-82
2021/04/21 03:25:51;;;;;;;81.03;74.77;;;7.00;99.90;;;;;;4912314;29;20467;-77
2021/04/21 03:28:21;;;;;;;87.73;81.20;;;7.00;99.90;;;;;;4911054;29;20485;-82
2021/04/21 03:30:52;;;;;;;84.17;77.53;;;7.00;99.90;;;;;;4913149;29;20487;-81
2021/04/21 03:33:24;;;;;;;86.20;78.23;;;7.00;99.90;;;;;;4915940;29;20479;-81
2021/04/21 03:35:52;;;;;;;92.40;85.20;;;7.00;99.90;;;;;;4914474;29;20462;-81
2021/04/21 03:38:22;;;;;;;86.40;79.30;;;7.20;99.90;;;;;;4917190;29;20456;-81
2021/04/21 03:40:51;;;;;;;82.13;74.70;;;7.20;99.90;;;;;;4916310;29;20469;-81
2021/04/21 03:43:19;;;;;;;86.57;78.70;;;7.20;99.90;;;;;;4917085;29;20501;-81
2021/04/21 03:45:49;;;;;;;84.03;76.00;;;7.30;99.90;;;;;;4917066;29;20456;-79
2021/04/21 03:48:17;;;;;;;81.60;73.60;;;7.40;99.90;;;;;;4917094;29;20460;-81
2021/04/21 03:50:52;;;;;;;76.93;70.53;;;7.40;99.90;;;;;;4921540;28;20539;-82
2021/04/21 03:53:20;;;;;;;73.53;66.57;;;7.40;99.90;;;;;;4916239;29;20460;-82
2021/04/21 03:55:50;;;;;;;77.17;69.27;;;7.40;99.90;;;;;;4915180;29;20459;-81
2021/04/21 03:58:20;;;;;;;69.77;63.17;;;7.50;99.90;;;;;;4916868;29;20469;-82
2021/04/21 04:00:56;;;;;;;71.17;64.27;;;7.40;99.90;;;;;;4916312;29;20484;-82
2021/04/21 04:03:26;;;;;;;67.40;59.93;;;7.40;99.90;;;;;;4916330;29;21198;-81
2021/04/21 04:06:00;;;;;;;65.50;58.97;;;7.50;99.90;;;;;;4916516;29;20494;-81
2021/04/21 04:08:29;;;;;;;56.87;50.87;;;7.50;99.90;;;;;;4916349;29;20568;-82
2021/04/21 04:11:00;;;;;;;51.73;46.27;;;7.40;99.90;;;;;;4915213;29;20492;-81
2021/04/21 04:13:30;;;;;;;61.50;54.60;;;7.50;99.90;;;;;;4916463;29;20864;-81
2021/04/21 04:15:58;;;;;;;63.63;56.93;;;7.40;99.90;;;;;;4916782;29;20928;-81
2021/04/21 04:18:26;;;;;;;61.57;55.33;;;7.40;99.90;;;;;;4916281;29;20506;-81
2021/04/21 04:20:56;;;;;;;58.70;53.00;;;7.60;99.90;;;;;;4916636;29;20562;-82
2021/04/21 04:23:25;;;;;;;54.93;49.63;;;7.60;99.90;;;;;;4916163;29;20461;-81
2021/04/21 04:25:54;;;;;;;65.73;54.07;;;7.60;99.90;;;;;;4915354;29;20496;-81
2021/04/21 04:28:21;;;;;;;64.70;57.37;;;7.60;99.90;;;;;;4916561;29;20575;-81
2021/04/21 04:30:49;;;;;;;63.30;56.47;;;7.60;99.90;;;;;;4915876;29;20486;-81
2021/04/21 04:33:16;;;;;;;61.97;56.27;;;7.60;99.90;;;;;;4916129;29;20529;-82
2021/04/21 04:35:43;;;;;;;60.03;54.47;;;7.60;99.90;;;;;;4915373;29;20847;-83
2021/04/21 04:38:13;;;;;;;70.00;62.50;;;7.60;99.90;;;;;;4916347;29;20457;-82
2021/04/21 04:40:39;;;;;;;68.40;62.30;;;7.70;99.90;;;;;;4914836;29;20468;-81
2021/04/21 04:43:08;;;;;;;74.90;68.07;;;7.70;99.90;;;;;;4915957;29;20514;-83
2021/04/21 04:45:38;;;;;;;72.43;62.70;;;7.60;99.90;;;;;;4915890;29;20849;-81
2021/04/21 04:48:15;;;;;;;68.50;62.13;;;7.70;99.90;;;;;;4914272;28;20558;-83
2021/04/21 04:50:43;;;;;;;75.77;67.77;;;7.70;99.90;;;;;;4914841;29;20493;-82
2021/04/21 04:53:17;;;;;;;69.87;61.60;;;7.70;99.90;;;;;;4916082;29;20490;-82
2021/04/21 04:55:43;;;;;;;75.13;68.47;;;7.70;99.90;;;;;;4914965;29;20464;-83
2021/04/21 04:58:13;;;;;;;66.60;60.73;;;7.70;99.90;;;;;;4915628;29;20532;-83
2021/04/21 05:00:45;;;;;;;68.00;61.37;;;7.70;99.90;;;;;;4915353;29;20587;-81
2021/04/21 05:03:20;;;;;;;69.07;62.27;;;7.80;99.90;;;;;;4915782;29;20463;-83
2021/04/21 05:05:46;;;;;;;66.33;60.23;;;7.80;99.90;;;;;;4915450;29;20472;-83
2021/04/21 05:08:20;;;;;;;67.77;61.57;;;7.90;99.90;;;;;;4915666;29;20984;-82
2021/04/21 05:10:55;;;;;;;72.57;61.07;;;7.90;99.90;;;;;;4914362;29;20493;-82
2021/04/21 05:13:24;;;;;;;68.33;61.00;;;8.00;99.90;;;;;;4916182;29;20935;-82
2021/04/21 05:16:26;;;;;;;63.70;57.53;;;8.20;99.90;;;;;;4915576;29;20490;-82
2021/04/21 05:19:37;;;;;;;64.97;59.37;;;8.20;99.90;;;;;;4896874;29;20520;-84
2021/04/21 05:22:51;;;;;;;79.90;58.67;;;8.30;99.90;;;;;;4896729;29;20466;-82
2021/04/21 05:26:10;;;;;;;58.67;51.67;;;8.40;99.90;;;;;;4900259;29;20467;-83
2021/04/21 05:29:15;;;;;;;78.70;47.00;;;8.40;99.90;;;;;;4915780;29;20567;-81
2021/04/21 05:32:15;;;;;;;57.90;42.20;;;8.60;99.90;;;;;;4915045;28;20983;-81
2021/04/21 05:35:26;;;;;;;62.93;45.07;;;8.70;99.90;;;;;;4915694;29;20500;-81
2021/04/21 05:38:35;;;;;;;50.93;36.80;;;8.80;99.90;;;;;;4915443;29;20500;-83
2021/04/21 05:41:42;;;;;;;55.27;36.50;;;8.90;99.90;;;;;;4912763;28;20457;-83
2021/04/21 05:45:00;;;;;;;74.17;37.53;;;9.00;99.90;;;;;;4896867;29;20835;-84
2021/04/21 05:47:59;;;;;;;60.30;37.70;;;9.20;99.90;;;;;;4896517;29;20456;-82
2021/04/21 05:51:10;;;;;;;67.17;37.23;;;9.40;99.90;;;;;;4906645;29;20477;-83
2021/04/21 05:54:19;;;;;;;55.13;28.87;;;9.60;99.90;;;;;;4914012;29;20516;-81
2021/04/21 05:57:25;;;;;;;67.10;32.70;;;9.70;99.90;;;;;;4914822;29;20459;-84
2021/04/21 06:00:20;;;;;;;52.60;29.37;;;9.80;99.90;;;;;;4888070;29;20897;-83
2021/04/21 06:02:52;;;;;;;73.20;31.47;;;10.00;99.90;;;;;;4910051;29;20457;-82
2021/04/21 06:05:23;;;;;;;57.83;30.20;;;10.10;99.90;;;;;;4914491;29;20554;-82
2021/04/21 06:07:54;;;;;;;67.43;30.33;;;10.10;99.90;;;;;;4914993;28;20481;-84
2021/04/21 06:10:26;;;;;;;68.97;30.50;;;10.10;99.90;;;;;;4916594;28;20565;-84
2021/04/21 06:12:57;;;;;;;60.63;29.10;;;10.20;99.90;;;;;;4950642;28;20451;-83
2021/04/21 06:15:27;;;;;;;69.10;28.80;;;10.40;99.90;;;;;;4972399;28;20455;-80
2021/04/21 06:18:01;;;;;;;55.50;29.10;;;10.50;99.90;;;;;;4931896;28;21034;-84
2021/04/21 06:20:36;;;;;;;61.00;27.37;;;10.60;99.90;;;;;;4914734;29;20480;-82
2021/04/21 06:23:12;;;;;;;50.40;26.47;;;10.70;99.90;;;;;;4914993;29;20456;-83
2021/04/21 06:25:40;;;;;;;59.77;25.17;;;10.70;96.00;;;;;;4913707;29;20462;-82
2021/04/21 06:28:15;;;;;;;54.23;25.80;;;10.70;92.80;;;;;;4914811;28;20459;-83
2021/04/21 06:30:46;;;;;;;53.30;23.80;;;10.70;94.10;;;;;;4914716;29;20508;-83
2021/04/21 06:33:13;;;;;;;48.80;24.53;;;10.70;91.60;;;;;;4914410;29;20514;-81
2021/04/21 06:35:47;;;;;;;58.30;28.23;;;10.80;91.30;;;;;;4914380;29;20462;-82
2021/04/21 06:38:15;;;;;;;57.13;25.03;;;10.60;93.20;;;;;;4914363;29;20464;-82
2021/04/21 06:40:49;;;;;;;56.80;24.53;;;10.70;92.30;;;;;;4913493;29;20477;-81
2021/04/21 06:43:23;;;;;;;60.00;26.50;;;10.70;97.00;;;;;;4914444;29;20562;-81
2021/04/21 06:45:53;;;;;;;59.23;25.03;;;10.60;94.60;;;;;;4914555;28;20872;-80
2021/04/21 06:48:30;;;;;;;52.87;23.50;;;10.70;91.40;;;;;;4914175;29;20462;-82
2021/04/21 06:51:08;;;;;;;63.20;28.93;;;10.70;93.30;;;;;;4913927;29;20496;-81
2021/04/21 06:53:40;;;;;;;50.57;23.47;;;10.80;91.10;;;;;;4913629;29;20832;-80
2021/04/21 06:56:14;;;;;;;56.53;25.23;;;10.90;92.20;;;;;;4914562;29;20461;-81
2021/04/21 06:58:43;;;;;;;46.93;25.83;;;10.80;83.80;;;;;;4914213;29;20459;-81
2021/04/21 07:01:12;;;;;;;52.33;23.43;;;10.80;81.20;;;;;;4914283;29;20547;-83
2021/04/21 07:03:39;;;;;;;58.33;27.03;;;10.90;81.80;;;;;;4914133;29;20464;-81
2021/04/21 07:06:05;;;;;;;54.03;21.57;;;11.00;77.90;;;;;;4914416;29;20466;-83
2021/04/21 07:08:37;;;;;;;59.90;28.50;;;11.00;72.20;;;;;;4913952;29;20875;-80
2021/04/21 07:11:07;;;;;;;53.70;23.73;;;11.20;87.40;;;;;;4913962;29;20860;-82
2021/04/21 07:13:41;;;;;;;54.00;25.10;;;11.20;78.00;;;;;;4911038;28;20459;-80
2021/04/21 07:16:16;;;;;;;51.73;23.97;;;11.30;75.80;;;;;;4912780;29;20468;-80
2021/04/21 07:18:48;;;;;;;45.40;22.07;;;11.50;70.40;;;;;;4912784;29;20460;-81
2021/04/21 07:21:17;;;;;;;51.03;23.20;;;11.60;65.50;;;;;;4913216;29;20462;-82
2021/04/21 07:23:57;;;;;;;46.93;22.73;;;11.70;60.40;;;;;;4911610;29;20889;-82
2021/04/21 07:26:28;;;;;;;46.70;24.20;;;11.80;62.50;;;;;;4912167;29;20564;-83
2021/04/21 07:28:59;;;;;;;64.70;27.87;;;11.80;59.40;;;;;;4913585;29;20454;-85
2021/04/21 07:31:36;;;;;;;60.67;26.87;;;12.00;58.70;;;;;;4913995;29;20489;-85
2021/04/21 07:34:04;;;;;;;46.17;21.57;;;12.20;58.10;;;;;;4913691;29;20458;-83
2021/04/21 07:36:42;;;;;;;59.30;24.77;;;12.20;55.90;;;;;;4913355;29;20469;-82
2021/04/21 07:39:11;;;;;;;53.77;24.40;;;12.30;55.70;;;;;;4911477;29;20917;-82
2021/04/21 07:41:46;;;;;;;49.13;22.10;;;12.70;52.70;;;;;;4913811;29;20977;-82
2021/04/21 07:44:31;;;;;;;54.97;25.57;;;12.70;51.10;;;;;;4914001;29;20453;-82
2021/04/21 07:47:14;;;;;;;53.87;24.53;;;12.90;49.60;;;;;;4913703;29;20988;-82
2021/04/21 07:49:43;;;;;;;47.03;20.60;;;13.20;46.90;;;;;;4912499;28;20514;-82
2021/04/21 07:52:25;;;;;;;49.40;21.10;;;13.50;43.40;;;;;;4913745;29;20910;-83
2021/04/21 07:55:07;;;;;;;42.23;17.00;;;13.60;38.40;;;;;;4912531;29;20500;-83
2021/04/21 07:57:40;;;;;;;42.43;17.73;;;13.90;36.40;;;;;;4913688;29;20469;-83
2021/04/21 08:00:12;;;;;;;33.43;13.83;;;14.10;31.50;;;;;;4913448;29;20462;-82
2021/04/21 08:02:44;;;;;;;43.70;18.30;;;14.40;29.50;;;;;;4913658;29;20453;-82
2021/04/21 08:05:17;;;;;;;48.77;17.80;;;14.70;25.30;;;;;;4913573;29;20672;-82
2021/04/21 08:07:53;;;;;;;46.07;19.07;;;14.90;25.20;;;;;;4913550;29;20851;-82
2021/04/21 08:10:26;;;;;;;55.27;19.67;;;15.10;27.30;;;;;;4912095;29;20476;-82
2021/04/21 08:12:55;;;;;;;49.13;18.80;;;15.20;24.90;;;;;;4913526;29;20472;-82
2021/04/21 08:15:31;;;;;;;46.40;19.17;;;15.30;21.40;;;;;;4913715;29;20466;-82
2021/04/21 08:18:05;;;;;;;46.40;18.13;;;15.50;19.60;;;;;;4913554;29;20515;-82
2021/04/21 08:20:40;;;;;;;45.33;16.27;;;15.80;18.60;;;;;;4913633;29;20833;-82
2021/04/21 08:23:17;;;;;;;44.17;15.20;;;15.30;19.90;;;;;;4914391;29;20452;-82
2021/04/21 08:25:45;;;;;;;46.50;16.50;;;15.30;20.20;;;;;;4915350;29;20454;-82
2021/04/21 08:31:06;;;;;;;52.33;17.87;;;15.10;23.40;;;;;;5095150;23;20641;-81
2021/04/21 08:33:35;;;;;;;51.97;19.90;;;15.90;21.00;;;;;;4937074;29;20460;-83
2021/04/21 08:36:03;;;;;;;49.40;16.63;;;16.30;17.50;;;;;;4936660;29;20787;-82
2021/04/21 08:38:36;;;;;;;48.53;16.27;;;16.50;15.50;;;;;;4935882;29;20947;-82
2021/04/21 08:41:03;;;;;;;46.80;17.23;;;16.90;13.80;;;;;;4935639;29;20999;-82
2021/04/21 08:46:16;;;;;;;51.83;18.00;;;16.50;14.80;;;;;;5370080;23;20492;-82
2021/04/21 08:48:49;;;;;;;47.20;15.97;;;16.40;14.90;;;;;;4936588;28;20536;-82
2021/04/21 08:51:27;;;;;;;51.97;16.20;;;16.60;13.50;;;;;;4936414;29;20506;-82
2021/04/21 08:54:00;;;;;;;47.60;16.20;;;16.90;15.40;;;;;;4935844;29;20452;-82
2021/04/21 08:56:26;;;;;;;46.33;16.60;;;16.60;14.60;;;;;;4935959;29;20445;-82
2021/04/21 08:58:59;;;;;;;45.90;16.90;;;16.50;10.90;;;;;;5492814;23;21603;-80
2021/04/21 09:01:33;;;;;;;44.87;18.53;;;16.80;16.20;;;;;;4934738;29;20801;-82
2021/04/21 09:04:07;;;;;;;54.60;17.10;;;16.30;14.30;;;;;;4935842;29;20543;-82
2021/04/21 09:06:38;;;;;;;39.20;15.23;;;16.40;14.50;;;;;;4935902;29;20507;-83
2021/04/21 09:09:18;;;;;;;43.70;15.17;;;16.50;12.70;;;;;;4935180;29;20449;-82
2021/04/21 09:11:46;;;;;;;42.87;14.30;;;16.20;10.10;;;;;;4935650;29;20534;-84
2021/04/21 09:14:13;;;;;;;45.20;15.90;;;16.50;11.80;;;;;;4935928;29;20452;-84
2021/04/21 09:17:02;;;;;;;;;;;;;;;;;;;;;
2021/04/21 09:19:44;;;;;;;50.23;18.60;;;17.20;13.30;;;;;;4934621;29;20453;-82
2021/04/21 09:22:20;;;;;;;42.43;16.10;;;17.20;10.20;;;;;;4936236;29;20445;-83
2021/04/21 09:24:58;;;;;;;47.10;16.73;;;17.00;10.10;;;;;;4935465;29;20476;-82
2021/04/21 09:27:58;;;;;;;46.90;17.90;;;16.80;7.90;;;;;;4935406;29;20821;-82
2021/04/21 09:30:44;;;;;;;;;;;;;;;;;;;;;
2021/04/21 09:33:29;;;;;;;43.30;13.90;;;15.60;10.60;;;;;;4934089;29;21002;-81
2021/04/21 09:36:18;;;;;;;41.03;13.67;;;15.50;12.40;;;;;;4935363;28;20959;-84
2021/04/21 09:38:44;;;;;;;38.50;10.93;;;15.60;10.90;;;;;;4935490;29;20533;-84
2021/04/21 09:41:32;;;;;;;45.03;15.63;;;15.40;9.70;;;;;;4935854;29;20449;-82
2021/04/21 09:44:11;;;;;;;55.70;14.27;;;15.80;13.50;;;;;;4934966;29;20866;-83
2021/04/21 09:46:42;;;;;;;44.60;14.00;;;16.10;11.90;;;;;;4935318;29;20449;-84
2021/04/21 09:49:39;;;;;;;46.57;19.87;;;16.50;9.70;;;;;;4934942;29;20940;-82
2021/04/21 09:52:29;;;;;;;46.13;15.40;;;16.60;9.90;;;;;;4935264;29;20895;-83
2021/04/21 09:55:00;;;;;;;50.77;18.27;;;17.20;11.20;;;;;;4934812;29;20445;-83
2021/04/21 09:57:32;;;;;;;41.30;13.63;;;17.60;10.50;;;;;;4935002;29;20456;-84
2021/04/21 10:00:02;;;;;;;39.00;12.47;;;17.00;5.30;;;;;;4935316;28;20483;-83
2021/04/21 10:02:46;;;;;;;51.30;14.30;;;17.20;7.10;;;;;;4934713;29;20584;-84
2021/04/21 10:05:36;;;;;;;42.00;12.23;;;17.40;10.10;;;;;;4934784;29;20967;-83
2021/04/21 10:08:25;;;;;;;38.30;12.43;;;17.30;5.50;;;;;;4934992;29;20452;-83
2021/04/21 10:11:09;;;;;;;43.40;13.90;;;17.30;3.40;;;;;;4935154;29;20530;-84
2021/04/21 10:13:47;;;;;;;45.37;16.30;;;17.60;2.80;;;;;;4934790;29;20449;-84
2021/04/21 10:16:16;;;;;;;47.10;15.93;;;17.10;4.40;;;;;;4934327;29;20449;-85
2021/04/21 10:18:49;;;;;;;53.20;16.50;;;17.40;2.30;;;;;;4933274;29;20565;-83
2021/04/21 10:21:20;;;;;;;51.08;17.70;;;17.30;2.60;;;;;;4932315;29;20552;-83
2021/04/21 10:23:49;;;;;;;43.50;14.40;;;17.20;6.80;;;;;;4932448;28;20227;-83
2021/04/21 10:26:31;;;;;;;44.77;14.53;;;17.50;4.00;;;;;;4933238;29;20552;-84
2021/04/21 10:29:02;;;;;;;45.50;15.77;;;18.10;7.20;;;;;;4933479;29;20457;-84
2021/04/21 10:31:29;;;;;;;42.97;12.33;;;18.10;3.30;;;;;;4933670;29;20485;-79
2021/04/21 10:33:58;;;;;;;47.20;16.20;;;18.70;2.00;;;;;;4932735;29;20483;-81
2021/04/21 10:36:25;;;;;;;44.50;15.83;;;18.20;1.00;;;;;;4932869;29;20983;-81
2021/04/21 10:38:53;;;;;;;46.30;15.53;;;18.60;1.90;;;;;;4931918;29;20543;-83
2021/04/21 10:41:32;;;;;;;39.50;11.13;;;18.90;1.00;;;;;;4932918;29;20544;-84
2021/04/21 10:44:10;;;;;;;50.93;13.80;;;18.60;1.00;;;;;;4933290;29;20452;-82
2021/04/21 10:47:04;;;;;;;44.97;13.27;;;19.10;1.00;;;;;;4931958;29;21127;-86
2021/04/21 10:50:10;;;;;;;47.07;13.70;;;18.90;1.00;;;;;;4930020;29;20445;-85
2021/04/21 10:52:38;;;;;;;48.20;12.77;;;19.40;1.00;;;;;;4900688;29;20546;-82
2021/04/21 10:55:37;;;;;;;47.20;12.10;;;19.20;1.00;;;;;;4932191;29;20551;-82
2021/04/21 10:58:06;;;;;;;49.92;13.48;;;19.30;1.00;;;;;;4926085;28;20469;-82
2021/04/21 11:00:44;;;;;;;48.77;12.87;;;20.20;1.00;;;;;;4934691;29;20221;-93
2021/04/21 11:03:11;;;;;;;45.93;11.73;;;20.30;1.00;;;;;;4930670;29;20460;-82
2021/04/21 11:05:46;;;;;;;44.70;8.67;;;21.00;1.00;;;;;;4931596;29;20457;-82
2021/04/21 11:08:16;;;;;;;45.13;8.40;;;20.90;1.00;;;;;;4931505;29;20540;-81
2021/04/21 11:10:59;;;;;;;46.30;9.67;;;20.40;1.00;;;;;;4928241;29;20473;-81
2021/04/21 11:13:46;;;;;;;48.53;9.20;;;20.50;1.00;;;;;;4931897;29;20539;-81
2021/04/21 11:16:36;;;;;;;49.13;10.97;;;20.50;1.00;;;;;;4932501;29;20465;-81
2021/04/21 11:19:31;;;;;;;54.10;9.90;;;20.70;1.00;;;;;;4920474;29;20456;-81
2021/04/21 11:22:17;;;;;;;44.27;8.20;;;20.40;1.00;;;;;;4929325;29;20453;-79
2021/04/21 11:24:45;;;;;;;51.30;9.30;;;20.00;1.00;;;;;;4931601;29;20453;-78
2021/04/21 11:27:48;;;;;;;44.90;7.20;;;20.40;1.00;;;;;;4932455;29;20452;-79
2021/04/21 11:30:51;;;;;;;42.97;7.40;;;20.30;1.00;;;;;;4932274;29;20452;-77
2021/04/21 11:33:55;;;;;;;45.60;6.87;;;20.10;1.00;;;;;;4919363;29;20452;-78
2021/04/21 11:36:56;;;;;;;42.07;7.13;;;20.30;1.00;;;;;;4932555;29;20548;-82
2021/04/21 11:40:06;;;;;;;44.67;7.33;;;20.20;1.00;;;;;;4931158;29;20535;-82
2021/04/21 11:42:43;;;;;;;41.90;6.80;;;20.90;1.00;;;;;;4932158;29;20457;-82
2021/04/21 11:45:26;;;;;;;44.33;7.87;;;20.00;1.00;;;;;;4932133;29;20460;-82
2021/04/21 11:47:55;;;;;;;42.33;6.60;;;20.50;1.00;;;;;;4932110;29;20504;-83
2021/04/21 11:50:28;;;;;;;40.87;6.40;;;20.90;1.00;;;;;;4931925;29;20524;-80
2021/04/21 11:53:02;;;;;;;41.57;6.80;;;20.90;1.00;;;;;;4931643;29;20543;-81
2021/04/21 11:55:57;;;;;;;;;;;;;;;;;;;;;
2021/04/21 11:58:42;;;;;;;;;;;;;;;;;;;;;
2021/04/21 12:01:10;;;;;;;43.57;8.93;;;20.40;1.00;;;;;;4914782;29;20552;-84
2021/04/21 12:07:51;;;;;;;41.10;7.13;;;20.30;1.00;;;;;;4932310;28;20449;-85
2021/04/21 12:10:35;;;;;;;40.70;7.10;;;21.20;1.00;;;;;;4934799;29;20460;-84
2021/04/21 12:16:12;;;;;;;43.17;7.50;;;20.40;1.00;;;;;;4917716;29;20457;-86
2021/04/21 12:19:30;;;;;;;;;;;;;;;;;;;;;
2021/04/21 12:22:20;;;;;;;41.93;9.23;;;20.40;1.00;;;;;;4935474;29;20547;-85
2021/04/21 12:24:47;;;;;;;42.30;8.93;;;20.10;1.00;;;;;;4934591;29;20543;-86
2021/04/21 12:27:33;;;;;;;42.53;7.90;;;18.80;1.00;;;;;;4935527;29;20453;-84
2021/04/21 12:30:15;;;;;;;44.43;12.73;;;18.20;1.00;;;;;;4935563;29;20464;-86
2021/04/21 12:32:43;;;;;;;41.53;7.90;;;17.40;1.00;;;;;;4935317;28;20484;-85
2021/04/21 12:35:14;;;;;;;36.23;6.70;;;17.30;1.00;;;;;;4935621;29;20466;-85
2021/04/21 12:37:55;;;;;;;34.43;6.33;;;17.10;1.00;;;;;;4935586;29;20500;-86
2021/04/21 12:40:30;;;;;;;35.90;6.57;;;17.10;1.00;;;;;;4934245;29;20467;-86
2021/04/21 12:43:12;;;;;;;30.80;6.30;;;17.40;1.00;;;;;;4935773;28;20948;-85
2021/04/21 12:45:39;;;;;;;30.33;6.87;;;17.80;1.00;;;;;;4935459;29;20471;-86
2021/04/21 12:48:30;;;;;;;30.87;6.77;;;18.30;1.00;;;;;;4935370;28;20452;-85
2021/04/21 12:50:57;;;;;;;29.37;5.17;;;19.10;1.00;;;;;;4949477;28;20495;-85
2021/04/21 12:53:34;;;;;;;33.70;6.30;;;19.10;1.00;;;;;;4935005;29;20464;-85
2021/04/21 12:56:12;;;;;;;33.83;6.60;;;19.30;1.00;;;;;;4934214;29;20895;-86
2021/04/21 12:58:53;;;;;;;;;;;;;;;;;;;;;
2021/04/21 13:01:25;;;;;;;43.63;5.53;;;19.70;1.00;;;;;;4929312;29;20459;-84
2021/04/21 13:04:00;;;;;;;40.90;7.35;;;20.00;1.00;;;;;;4934147;29;20465;-79
2021/04/21 13:06:44;;;;;;;37.10;6.00;;;19.90;1.00;;;;;;4934242;29;20192;-79
2021/04/21 13:09:20;;;;;;;40.80;7.95;;;19.50;1.00;;;;;;4931349;29;20527;-86
2021/04/21 13:12:03;;;;;;;44.17;8.45;;;19.20;1.00;;;;;;4931057;29;20564;-84
2021/04/21 13:14:43;;;;;;;40.83;6.20;;;19.40;1.00;;;;;;4935012;29;20475;-87
2021/04/21 13:17:47;;;;;;;40.40;7.07;;;19.50;1.00;;;;;;4933689;28;20502;-88
2021/04/21 13:20:14;;;;;;;36.07;6.70;;;19.70;1.00;;;;;;4949397;28;20473;-87
2021/04/21 13:22:41;;;;;;;39.13;6.80;;;19.90;1.00;;;;;;4934827;29;20461;-88
2021/04/21 13:25:11;;;;;;;38.23;6.50;;;19.80;1.00;;;;;;4933160;28;20453;-87
2021/04/21 13:27:39;;;;;;;39.47;7.10;;;19.90;1.00;;;;;;4934363;29;20457;-83
2021/04/21 13:30:38;;;;;;;38.60;7.67;;;20.00;1.00;;;;;;4933809;29;20457;-84
2021/04/21 13:33:05;;;;;;;41.70;6.37;;;20.20;1.00;;;;;;4920884;29;20449;-82
2021/04/21 13:35:32;;;;;;;42.00;8.13;;;20.30;1.00;;;;;;4935063;28;20495;-81
2021/04/21 13:37:58;;;;;;;43.97;10.30;;;20.30;1.00;;;;;;4982194;28;20837;-81
2021/04/21 13:40:25;;;;;;;39.10;7.23;;;19.90;1.00;;;;;;5013392;28;20484;-82
2021/04/21 13:42:53;;;;;;;44.03;8.63;;;19.90;1.00;;;;;;4939835;28;20468;-81